• Join FlightAware (Why Join?)
  • Login
  • US Flag GB Flag 
02:18 EST


 

Airport Tracker/Info


-or-


 

Live Flight TrackerFlight Track Log ✈ N45EJ ✈ 07-Oct-2013 ✈ KTVC - KPWK

Flight Track Log - Related Links

Times and Time Zones

All times are in EDT time to prevent confusion due to time zone crossing. See the N45EJ flight status page for this flight to view local times or setup timezone preferences in your user account.

Time Position Orientation Groundspeed Altitude Reporting Facility
EDT Latitude Longitude Course Direction KTS MPH feet Rate Location/Type
06:29 44.7742 -85.6325 216° Southwest 246 283 3,600  Level Minneapolis Center
06:30 44.7217 -85.6861 216° Southwest 228 262 6,400 3,000 Climbing Minneapolis Center
06:31 44.6572 -85.7467 214° Southwest 263 303 9,700 3,180 Climbing Minneapolis Center
06:32 44.5831 -85.8178 214° Southwest 312 359 12,800 3,120 Climbing Minneapolis Center
06:33 44.5044 -85.8919 214° Southwest 333 383 16,000 3,000 Climbing Minneapolis Center
06:34 44.4247 -85.9661 214° Southwest 341 392 18,900 1,980 Climbing Minneapolis Center
06:35 44.3372 -86.0486 214° Southwest 370 426 20,000 540 Climbing Minneapolis Center
06:36 44.2342 -86.1456 214° Southwest 434 499 20,000  Level Minneapolis Center
06:37 44.1325 -86.2400 214° Southwest 438 504 20,000  Level Minneapolis Center
06:38 44.0286 -86.3342 213° Southwest 442 509 20,000  Level Minneapolis Center
06:39 43.9272 -86.4289 214° Southwest 442 509 20,000  Level Minneapolis Center
06:40 43.8256 -86.5219 213° Southwest 440 506 20,000  Level Minneapolis Center
06:41 43.7239 -86.6169 214° Southwest 444 511 20,000  Level Minneapolis Center
06:42 43.6197 -86.7108 213° Southwest 447 514 20,000  Level Minneapolis Center
06:43 43.4972 -86.8239 214° Southwest 446 513 20,000 -300 Level Minneapolis Center
06:44 43.3953 -86.9178 214° Southwest 447 514 19,400 -840 Descending Chicago Center
06:45 43.2897 -87.0117 213° Southwest 453 521 18,400 -1,140 Descending Chicago Center
06:46 43.1878 -87.1019 213° Southwest 446 513 17,200 -1,140 Descending Chicago Center
06:47 43.0933 -87.1881 214° Southwest 422 486 16,200 -1,020 Descending Chicago Center
06:48 42.9994 -87.2714 213° Southwest 408 470 15,200 -1,020 Descending Chicago Center
06:49 42.9078 -87.3533 213° Southwest 400 460 14,200 -960 Descending Chicago Center
06:50 42.8303 -87.4392 219° Southwest 386 444 13,300 -1,020 Descending Chicago Center
06:51 42.7792 -87.5619 240° Southwest 372 428 12,200 -1,320 Descending Chicago Center
06:52 42.7322 -87.6800 242° Southwest 359 413 10,700 -1,260 Descending Chicago Center
06:53 42.6917 -87.7775 241° Southwest 307 353 9,700 -1,560 Descending Chicago Center
06:54 42.6644 -87.8900 252° West 262 302 7,600 -1,920 Descending Chicago Center
06:55 42.6556 -87.9950 263° West 275 316 5,900 -1,440 Descending Chicago Center
06:56 42.5958 -88.0331 205° Southwest 277 319 4,700 -960 Descending Chicago Center
06:57 42.5206 -88.0219 174° South 273 314 4,000 -360 Descending Chicago Center
06:58 42.4486 -88.0097 173° South 266 306 4,000 -480 Level Chicago Center
06:59 42.3789 -88.0044 177° South 255 293 3,100 -780 Descending Chicago Center
07:00 42.3122 -88.0008 178° South 250 288 2,500 -300 Descending Chicago Center
07:01 42.2606 -87.9825 165° South 213 245 2,500  Level Chicago Center
07:02 42.2083 -87.9542 158° South 204 235 2,500 -300 Level Chicago Center
07:03 42.1681 -87.9311 157° South 197 227 2,000 -540 Descending Chicago Center
07:05 42.1143 -87.9015 169° South  Level Estimated
07:12 42.1143 -87.9015 169° South  Level Estimated